createdAt,value
2023-12-24T00:00:34.067Z,3.08
2023-12-24T00:04:26.075Z,3.09
2023-12-24T00:08:35.744Z,3.09
2023-12-24T00:12:45.892Z,3.08
2023-12-24T00:16:55.867Z,3.07
2023-12-24T00:21:06.051Z,3.07
2023-12-24T00:25:09.292Z,3.07
2023-12-24T00:29:19.055Z,3.06
2023-12-24T00:33:29.411Z,3.07
2023-12-24T00:37:39.260Z,3.08
2023-12-24T00:41:49.121Z,3.08
2023-12-24T00:45:58.936Z,3.08
2023-12-24T00:50:08.858Z,3.08
2023-12-24T00:54:08.835Z,3.08
2023-12-24T00:58:18.428Z,3.10
2023-12-24T01:02:27.218Z,3.10
2023-12-24T01:06:37.765Z,3.11
2023-12-24T01:10:49.334Z,3.13
2023-12-24T01:15:00.301Z,3.17
2023-12-24T01:19:10.237Z,3.20
2023-12-24T01:23:20.266Z,3.22
2023-12-24T01:26:41.398Z,3.25
2023-12-24T01:29:16.093Z,3.27
2023-12-24T01:32:18.376Z,3.28
2023-12-24T01:35:51.087Z,3.29
2023-12-24T01:38:46.317Z,3.30
2023-12-24T01:42:27.508Z,3.32
2023-12-24T01:46:37.363Z,3.32
2023-12-24T01:50:47.418Z,3.31
2023-12-24T01:54:57.303Z,3.29
2023-12-24T01:58:52.118Z,3.27
2023-12-24T02:03:01.957Z,3.26
2023-12-24T02:07:11.678Z,3.25
2023-12-24T02:11:21.436Z,3.25
2023-12-24T02:15:31.358Z,3.25
2023-12-24T02:19:41.187Z,3.24
2023-12-24T02:23:51.078Z,3.24
2023-12-24T02:28:03.446Z,3.23
2023-12-24T02:32:16.106Z,3.21
2023-12-24T02:36:05.938Z,3.19
2023-12-24T02:40:15.738Z,3.17
2023-12-24T02:44:25.640Z,3.15
2023-12-24T02:48:35.735Z,3.12
2023-12-24T02:52:45.645Z,3.12
2023-12-24T02:56:55.659Z,3.12
2023-12-24T03:01:05.671Z,3.10
2023-12-24T03:04:56.870Z,3.10
2023-12-24T03:09:06.790Z,3.08
2023-12-24T03:13:16.780Z,3.07
2023-12-24T03:16:46.725Z,3.04
2023-12-24T03:20:56.667Z,3.03
2023-12-24T03:25:06.444Z,3.02
2023-12-24T03:29:16.199Z,3.02
2023-12-24T03:33:26.265Z,3.03
2023-12-24T03:37:36.189Z,3.04
2023-12-24T03:41:45.938Z,3.03
2023-12-24T03:45:55.818Z,3.03
2023-12-24T03:50:05.741Z,2.93
2023-12-24T03:54:15.624Z,2.77
2023-12-24T03:58:25.509Z,2.57
2023-12-24T04:02:35.574Z,2.43
2023-12-24T04:06:51.147Z,2.36
2023-12-24T04:11:01.326Z,2.29
2023-12-24T04:15:11.043Z,2.24
2023-12-24T04:19:21.025Z,2.19
2023-12-24T04:23:30.935Z,2.16
2023-12-24T04:27:39.237Z,2.16
2023-12-24T04:31:48.991Z,2.13
2023-12-24T04:35:59.115Z,2.09
2023-12-24T04:40:01.275Z,2.03
2023-12-24T04:44:10.883Z,2.01
2023-12-24T04:48:20.660Z,2.02
2023-12-24T04:52:32.017Z,1.98
2023-12-24T04:56:41.797Z,2.11
2023-12-24T05:00:51.946Z,2.47
2023-12-24T05:05:01.933Z,2.71
2023-12-24T05:09:11.939Z,2.90
2023-12-24T05:13:21.674Z,3.02
2023-12-24T05:17:31.491Z,3.14
2023-12-24T05:21:35.012Z,3.27
2023-12-24T05:25:39.085Z,3.39
2023-12-24T05:29:49.108Z,3.47
2023-12-24T05:33:59.189Z,3.50
2023-12-24T05:37:59.665Z,3.55
2023-12-24T05:42:09.943Z,3.58
2023-12-24T05:46:21.126Z,3.63
2023-12-24T05:50:37.131Z,3.65
2023-12-24T05:54:46.916Z,3.71
2023-12-24T05:58:56.790Z,3.75
2023-12-24T06:03:06.479Z,3.79
2023-12-24T06:07:09.338Z,3.81
2023-12-24T06:11:09.279Z,3.79
2023-12-24T06:15:19.548Z,3.77
2023-12-24T06:19:29.532Z,3.75
2023-12-24T06:23:39.627Z,3.73
2023-12-24T06:27:49.296Z,3.77
2023-12-24T06:32:01.447Z,3.77
2023-12-24T06:36:11.281Z,3.79
2023-12-24T06:40:21.552Z,3.85
2023-12-24T06:44:31.137Z,3.81
2023-12-24T06:48:41.374Z,3.81
2023-12-24T06:52:51.557Z,3.85
2023-12-24T06:57:01.795Z,3.85
2023-12-24T07:01:10.309Z,3.84
2023-12-24T07:05:20.215Z,3.79
2023-12-24T07:09:30.473Z,3.72
2023-12-24T07:13:33.964Z,3.65
2023-12-24T07:17:26.829Z,3.61
2023-12-24T07:21:36.685Z,3.58
2023-12-24T07:25:46.558Z,3.52
2023-12-24T07:29:56.397Z,3.48
2023-12-24T07:34:06.178Z,3.52
2023-12-24T07:38:16.138Z,3.59
2023-12-24T07:42:25.955Z,3.63
2023-12-24T07:46:37.553Z,3.69
2023-12-24T07:50:48.194Z,3.73
2023-12-24T07:54:58.192Z,3.70
2023-12-24T07:59:07.902Z,3.70
2023-12-24T08:03:17.656Z,3.68
2023-12-24T08:07:28.145Z,3.64
2023-12-24T08:11:38.086Z,3.55
2023-12-24T08:15:49.364Z,3.46
2023-12-24T08:19:50.699Z,3.42
2023-12-24T08:24:32.279Z,3.45
2023-12-24T08:28:42.018Z,3.46
2023-12-24T08:32:52.051Z,3.44
2023-12-24T08:37:02.306Z,3.47
2023-12-24T08:41:12.182Z,3.53
2023-12-24T08:45:21.943Z,3.60
2023-12-24T08:49:31.773Z,3.63
2023-12-24T08:53:41.729Z,3.67
2023-12-24T08:57:51.556Z,3.77
2023-12-24T09:01:05.741Z,3.83
2023-12-24T09:04:03.631Z,3.84
2023-12-24T09:06:47.680Z,3.89
2023-12-24T09:09:42.671Z,3.92
2023-12-24T09:12:25.880Z,3.99
2023-12-24T09:15:12.893Z,4.05
2023-12-24T09:18:45.833Z,4.07
2023-12-24T09:22:53.350Z,4.06
2023-12-24T09:27:03.427Z,3.95
2023-12-24T09:31:13.443Z,3.95
2023-12-24T09:35:23.221Z,4.00
2023-12-24T09:39:32.938Z,4.06
2023-12-24T09:43:42.953Z,4.01
2023-12-24T09:47:07.004Z,3.96
2023-12-24T09:50:06.053Z,3.96
2023-12-24T09:53:12.186Z,3.95
2023-12-24T09:56:09.889Z,3.97
2023-12-24T09:58:56.216Z,3.99
2023-12-24T10:02:57.568Z,4.02
2023-12-24T10:07:10.679Z,4.01
2023-12-24T10:11:20.761Z,3.96
2023-12-24T10:15:30.113Z,3.95
2023-12-24T10:19:40.075Z,3.94
2023-12-24T10:23:49.770Z,3.96
2023-12-24T10:28:06.636Z,3.94
2023-12-24T10:32:17.111Z,3.94
2023-12-24T10:36:27.063Z,3.96
2023-12-24T10:40:45.660Z,3.95
2023-12-24T10:44:46.054Z,3.98
2023-12-24T10:48:56.148Z,4.05
2023-12-24T10:53:06.269Z,4.10
2023-12-24T10:57:16.138Z,4.11
2023-12-24T11:01:17.220Z,4.17
2023-12-24T11:05:45.878Z,4.22
2023-12-24T11:09:56.177Z,4.23
2023-12-24T11:14:11.728Z,4.25
2023-12-24T11:18:37.125Z,4.29
2023-12-24T11:22:48.955Z,4.35
2023-12-24T11:27:10.638Z,4.39
2023-12-24T11:31:26.579Z,4.43
2023-12-24T11:35:35.106Z,4.44
2023-12-24T11:39:45.345Z,4.47
2023-12-24T11:43:57.946Z,4.51
2023-12-24T11:48:07.944Z,4.54
2023-12-24T11:52:18.116Z,4.55
2023-12-24T11:56:28.411Z,4.53
2023-12-24T12:00:38.664Z,4.46
2023-12-24T12:04:48.788Z,4.40
2023-12-24T12:08:58.717Z,4.36
2023-12-24T12:13:08.813Z,4.32
2023-12-24T12:17:18.706Z,4.29
2023-12-24T12:21:28.638Z,4.29
2023-12-24T12:25:38.390Z,4.30
2023-12-24T12:29:48.605Z,4.28
2023-12-24T12:33:51.006Z,4.26
2023-12-24T12:38:00.801Z,4.26
2023-12-24T12:42:13.383Z,4.21
2023-12-24T12:46:23.269Z,4.18
2023-12-24T12:50:33.917Z,4.14
2023-12-24T12:54:46.821Z,4.14
2023-12-24T12:58:56.645Z,4.12
2023-12-24T13:03:06.724Z,4.08
2023-12-24T13:07:19.280Z,4.08
2023-12-24T13:11:32.085Z,4.07
2023-12-24T14:49:15.941Z,3.59
2023-12-24T14:53:28.800Z,3.56
2023-12-24T14:57:39.049Z,3.53
2023-12-24T15:01:49.272Z,3.49
2023-12-24T15:05:59.101Z,3.44
2023-12-24T15:10:08.838Z,3.39
2023-12-24T15:14:18.717Z,3.34
2023-12-24T15:18:28.949Z,3.29
2023-12-24T15:22:38.919Z,3.27
2023-12-24T15:26:48.631Z,3.23
2023-12-24T15:30:58.648Z,3.20
2023-12-24T15:35:09.733Z,3.16
2023-12-24T15:39:19.969Z,3.13
2023-12-24T15:43:29.875Z,3.10
2023-12-24T15:47:39.552Z,3.07
2023-12-24T15:51:49.389Z,3.06
2023-12-24T15:55:59.099Z,3.04
2023-12-24T16:00:08.838Z,3.00
2023-12-24T16:04:18.800Z,2.96
2023-12-24T16:08:29.125Z,2.91
2023-12-24T16:12:38.946Z,2.85
2023-12-24T16:16:48.950Z,2.84
2023-12-24T16:20:58.815Z,2.81
2023-12-24T16:25:08.639Z,2.80
2023-12-24T16:29:18.212Z,2.79
2023-12-24T16:33:28.045Z,2.78
2023-12-24T16:37:38.022Z,2.77
2023-12-24T16:41:48.269Z,2.75
2023-12-24T16:45:58.239Z,2.77
2023-12-24T16:50:08.140Z,2.80
2023-12-24T16:54:18.033Z,2.82
2023-12-24T16:58:27.914Z,2.81
2023-12-24T17:02:37.931Z,2.83
2023-12-24T17:06:47.875Z,2.87
2023-12-24T17:10:47.609Z,2.91
2023-12-24T17:14:57.582Z,2.94
2023-12-24T17:19:07.412Z,2.95
2023-12-24T17:23:17.347Z,2.99
2023-12-24T17:27:27.359Z,3.00
2023-12-24T17:31:37.680Z,3.02
2023-12-24T17:35:47.440Z,3.07
2023-12-24T17:39:57.086Z,3.12
2023-12-24T17:44:06.932Z,3.20
2023-12-24T17:48:20.210Z,3.26
2023-12-24T17:52:32.507Z,3.31
2023-12-24T17:56:42.374Z,3.35
2023-12-24T18:00:52.622Z,3.39
2023-12-24T18:05:02.613Z,3.42
2023-12-24T18:09:04.842Z,3.47
2023-12-24T18:13:15.137Z,3.51
2023-12-24T18:17:25.046Z,3.57
2023-12-24T18:21:35.030Z,3.63
2023-12-24T18:25:44.774Z,3.70
2023-12-24T18:29:47.779Z,3.77
2023-12-24T18:33:57.893Z,3.84
2023-12-24T18:38:08.003Z,3.91
2023-12-24T18:42:17.714Z,3.99
2023-12-24T18:46:27.570Z,4.09
2023-12-24T18:50:28.839Z,4.20
2023-12-24T18:54:38.782Z,4.30
2023-12-24T18:58:48.725Z,4.45
2023-12-24T19:02:58.915Z,4.60
2023-12-24T19:07:09.193Z,4.74
2023-12-24T19:11:19.193Z,4.90
2023-12-24T19:15:28.965Z,5.06
2023-12-24T19:19:38.865Z,5.20
2023-12-24T19:23:49.513Z,5.31
2023-12-24T19:28:00.939Z,5.39
2023-12-24T19:32:13.629Z,5.47
2023-12-24T19:36:26.371Z,5.52
2023-12-24T19:40:36.126Z,5.58
2023-12-24T19:44:44.834Z,5.66
2023-12-24T19:48:54.930Z,5.75
2023-12-24T19:53:05.409Z,5.83
2023-12-24T20:08:58.637Z,6.35
2023-12-24T20:13:08.455Z,6.46
2023-12-24T20:17:18.220Z,6.57
2023-12-24T20:21:28.113Z,6.68
2023-12-24T20:25:37.965Z,6.79
2023-12-24T20:29:47.934Z,6.92
2023-12-24T20:34:00.756Z,7.06
2023-12-24T20:38:10.962Z,7.18
2023-12-24T20:42:23.748Z,7.31
2023-12-24T20:46:33.499Z,7.43
2023-12-24T20:50:43.176Z,7.52
2023-12-24T20:54:53.197Z,7.60
2023-12-24T20:59:02.935Z,7.66
2023-12-24T21:03:12.848Z,7.72
2023-12-24T21:07:25.224Z,7.76
2023-12-24T21:11:35.611Z,7.80
2023-12-24T21:15:44.353Z,7.84
2023-12-24T21:19:54.109Z,7.89
2023-12-24T21:24:04.094Z,7.94
2023-12-24T21:28:15.387Z,8.02
2023-12-24T21:31:29.838Z,8.10
2023-12-24T21:34:15.372Z,8.15
2023-12-24T21:36:57.914Z,8.21
2023-12-24T21:40:12.170Z,8.26
2023-12-24T21:43:00.449Z,8.32
2023-12-24T21:45:37.585Z,8.32
2023-12-24T21:48:15.897Z,8.36
2023-12-24T21:50:45.505Z,8.40
2023-12-24T21:53:33.123Z,8.45
2023-12-24T21:56:08.416Z,8.49
2023-12-24T21:59:02.837Z,8.53
2023-12-24T22:01:34.538Z,8.56
2023-12-24T22:04:32.232Z,8.59
2023-12-24T22:07:26.361Z,8.63
2023-12-24T22:10:07.844Z,8.66
2023-12-24T22:12:52.414Z,8.67
2023-12-24T22:16:33.900Z,8.70
2023-12-24T22:20:43.784Z,8.70
2023-12-24T22:24:56.354Z,8.75
2023-12-24T22:29:06.219Z,8.79
2023-12-24T22:32:18.794Z,8.86
2023-12-24T22:34:58.128Z,8.95
2023-12-24T22:38:02.044Z,9.06
2023-12-24T22:40:47.285Z,9.15
2023-12-24T22:43:27.971Z,9.21
2023-12-24T22:47:21.021Z,9.28
2023-12-24T22:51:30.676Z,9.36
2023-12-24T22:55:40.634Z,9.45
2023-12-24T22:59:50.438Z,9.55
2023-12-24T23:04:00.588Z,9.63
2023-12-24T23:08:03.165Z,9.68
2023-12-24T23:11:53.930Z,9.72
2023-12-24T23:16:03.728Z,9.73
2023-12-24T23:20:18.658Z,9.73
2023-12-24T23:24:28.406Z,9.72
2023-12-24T23:28:38.264Z,9.71
2023-12-24T23:32:48.587Z,9.70
2023-12-24T23:36:58.724Z,9.67
2023-12-24T23:41:08.677Z,9.65
2023-12-24T23:45:18.659Z,9.62
2023-12-24T23:49:28.498Z,9.60
2023-12-24T23:53:39.097Z,9.60
2023-12-24T23:57:48.799Z,9.58
